Lakehurst NAES, Maxfield Field Lakehurst US
ICAO: KNEL
IATA: NEL
Category: Medium
Scheduled Services: No

Elevation: 101 ft
TransAlt. 18000 ft.

Airport Communications:
MC GUIRE APP/DEP:124.15
GND:118.375
MILLVILLE RDO:113.8
TWR:127.775

KNEL Zoom In..

If you have problems with the map follow the link
https://www.worldairports.se/pages/airport.php?
ICAO=KNEL

Runways:

(A) RW 06 length 5002 ft width 150 ft
---- / hdg 62

(B) RW 15 length 5001 ft width 150 ft
---- / hdg 152

(C) RW 24 length 5002 ft width 150 ft
---- / hdg 242

(D) RW 33 length 5001 ft width 150 ft
---- / hdg 332

Location; KNEL
Day. 23 / Time. 22.00 Zulu
* Altimeter: 30.35
* Temperature: 04° c. 39.2°f.
* Wind from: 140° Speed 03 kn.
Dewpoint: -07° c.
Visibility: 4 Statute Miles.
Clouds: Clear (automated report).
Conditions: Haze.

KNEL 232200Z 14003KT 4SM HZ CLR 04/M07 A3035 RMK AO2 SLP276 T00441072 $


Wind From 140°
Speed 03 kn.

 
 
jpsmedia worldairports.se 2020   terms of use